Time;durP1;ratioP1;P1;durP2;ratioP2;P2;SDS_P1;SDS_P2;PMS_P1;PMS_P2;Temp;Humidity;BMP_temperature;BMP_pressure;BME280_temperature;BME280_humidity;BME280_pressure;Samples;Min_cycle;Max_cycle;Signal;HPM_P1;HPM_P2
2021/10/17 00:00:16;;;;;;;17.87;14.23;;;;;;;;;;4991160;28;20444;-74
2021/10/17 00:02:43;;;;;;;21.60;16.73;;;;;;;;;;4976037;28;20431;-74
2021/10/17 00:05:09;;;;;;;20.63;15.27;;;;;;;;;;4991087;28;20443;-75
2021/10/17 00:07:35;;;;;;;19.47;16.07;;;;;;;;;;4990776;28;20439;-74
2021/10/17 00:10:02;;;;;;;20.30;16.60;;;;;;;;;;4990837;28;20454;-74
2021/10/17 00:12:28;;;;;;;18.20;15.73;;;;;;;;;;4974310;28;20451;-75
2021/10/17 00:14:54;;;;;;;22.43;16.30;;;;;;;;;;4975652;28;20518;-75
2021/10/17 00:17:20;;;;;;;19.57;15.63;;;;;;;;;;4975517;28;21060;-74
2021/10/17 00:19:46;;;;;;;20.40;14.67;;;;;;;;;;4990728;28;20574;-74
2021/10/17 00:22:12;;;;;;;18.50;15.00;;;;;;;;;;4975832;28;20431;-76
2021/10/17 00:24:38;;;;;;;22.87;16.63;;;;;;;;;;4975792;28;20432;-74
2021/10/17 00:27:04;;;;;;;26.17;17.50;;;;;;;;;;4975858;28;20433;-73
2021/10/17 00:29:29;;;;;;;20.87;15.73;;;;;;;;;;4974891;28;20509;-74
2021/10/17 00:31:56;;;;;;;25.20;17.47;;;;;;;;;;4975587;28;20434;-74
2021/10/17 00:34:22;;;;;;;19.07;15.47;;;;;;;;;;4975746;28;20463;-75
2021/10/17 00:36:48;;;;;;;20.80;17.70;;;;;;;;;;4975768;28;20940;-74
2021/10/17 00:39:14;;;;;;;24.33;18.73;;;;;;;;;;4976102;28;20421;-74
2021/10/17 00:41:40;;;;;;;24.10;19.10;;;;;;;;;;4976110;28;20515;-73
2021/10/17 00:44:06;;;;;;;26.30;18.20;;;;;;;;;;4975357;28;20901;-74
2021/10/17 00:46:32;;;;;;;21.60;16.53;;;;;;;;;;4975334;28;20459;-73
2021/10/17 00:48:58;;;;;;;24.00;18.67;;;;;;;;;;4975467;28;20751;-74
2021/10/17 00:51:24;;;;;;;21.77;17.20;;;;;;;;;;4975619;28;20526;-75
2021/10/17 00:53:51;;;;;;;22.83;18.70;;;;;;;;;;4975355;28;20500;-74
2021/10/17 00:56:19;;;;;;;23.87;16.27;;;;;;;;;;4976217;28;20907;-74
2021/10/17 00:58:45;;;;;;;22.40;17.23;;;;;;;;;;4976796;28;20483;-74
2021/10/17 01:01:11;;;;;;;23.97;18.77;;;;;;;;;;4975284;28;20977;-74
2021/10/17 01:03:37;;;;;;;22.53;18.10;;;;;;;;;;4974206;28;20409;-74
2021/10/17 01:06:04;;;;;;;21.00;17.20;;;;;;;;;;4990090;28;20436;-74
2021/10/17 01:08:30;;;;;;;19.10;15.73;;;;;;;;;;4975570;28;20428;-74
2021/10/17 01:10:57;;;;;;;20.20;16.53;;;;;;;;;;4975307;28;20751;-74
2021/10/17 01:13:24;;;;;;;23.30;17.03;;;;;;;;;;4974759;28;20411;-74
2021/10/17 01:15:57;;;;;;;18.23;15.60;;;;;;;;;;4975122;28;20825;-74
2021/10/17 01:18:23;;;;;;;20.57;16.40;;;;;;;;;;4975162;28;20413;-74
2021/10/17 01:20:49;;;;;;;20.97;14.90;;;;;;;;;;4975044;28;20819;-74
2021/10/17 01:23:17;;;;;;;19.70;16.30;;;;;;;;;;4974705;28;20473;-74
2021/10/17 01:25:43;;;;;;;16.73;14.90;;;;;;;;;;4974929;28;20848;-74
2021/10/17 01:28:09;;;;;;;22.43;15.90;;;;;;;;;;4974735;28;20421;-75
2021/10/17 01:30:35;;;;;;;18.23;14.87;;;;;;;;;;4975225;28;20789;-73
2021/10/17 01:36:05;;;;;;;16.77;14.97;;;;;;;;;;4974908;28;20985;-74
2021/10/17 01:38:31;;;;;;;16.57;14.57;;;;;;;;;;4989522;28;20442;-75
2021/10/17 01:40:57;;;;;;;18.87;14.33;;;;;;;;;;4974766;28;20455;-74
2021/10/17 01:43:23;;;;;;;16.13;14.40;;;;;;;;;;4974298;28;20472;-74
2021/10/17 01:45:49;;;;;;;15.53;14.03;;;;;;;;;;4974508;28;20455;-73
2021/10/17 01:51:18;;;;;;;15.23;13.33;;;;;;;;;;4974665;28;20568;-74
2021/10/17 01:53:45;;;;;;;15.07;13.60;;;;;;;;;;4974580;28;20431;-74
2021/10/17 01:56:11;;;;;;;15.30;13.07;;;;;;;;;;4974521;28;20424;-74
2021/10/17 01:58:37;;;;;;;14.47;12.97;;;;;;;;;;4974348;28;20430;-74
2021/10/17 02:01:03;;;;;;;16.10;14.40;;;;;;;;;;4974450;28;20453;-75
2021/10/17 02:03:29;;;;;;;16.77;13.77;;;;;;;;;;4974341;28;20834;-73
2021/10/17 02:05:55;;;;;;;16.27;14.67;;;;;;;;;;4974536;28;20415;-74
2021/10/17 02:08:21;;;;;;;16.30;14.30;;;;;;;;;;4974371;28;20869;-75
2021/10/17 02:10:47;;;;;;;15.10;13.57;;;;;;;;;;4974577;28;20539;-74
2021/10/17 02:13:15;;;;;;;16.57;13.70;;;;;;;;;;4974204;28;20819;-74
2021/10/17 02:15:41;;;;;;;14.10;12.60;;;;;;;;;;4974973;28;20540;-73
2021/10/17 02:21:11;;;;;;;15.07;13.10;;;;;;;;;;4974293;28;20454;-75
2021/10/17 02:23:37;;;;;;;16.70;14.93;;;;;;;;;;4974229;28;20423;-74
2021/10/17 02:26:03;;;;;;;15.87;13.87;;;;;;;;;;4974317;28;20415;-74
2021/10/17 02:28:29;;;;;;;14.97;13.30;;;;;;;;;;4973944;28;20438;-74
2021/10/17 02:30:55;;;;;;;17.43;14.80;;;;;;;;;;4973993;28;20419;-75
2021/10/17 02:36:25;;;;;;;17.50;14.23;;;;;;;;;;4974127;28;20835;-73
2021/10/17 02:38:51;;;;;;;15.90;13.97;;;;;;;;;;4974234;28;20531;-74
2021/10/17 02:41:17;;;;;;;16.63;14.90;;;;;;;;;;4973835;28;20420;-74
2021/10/17 02:43:43;;;;;;;18.27;15.30;;;;;;;;;;4973753;28;20471;-74
2021/10/17 02:46:09;;;;;;;17.03;15.30;;;;;;;;;;4973859;28;20418;-74
2021/10/17 02:51:38;;;;;;;16.93;14.20;;;;;;;;;;4974050;28;20827;-73
2021/10/17 02:54:04;;;;;;;16.30;13.43;;;;;;;;;;4973767;28;20467;-73
2021/10/17 02:56:30;;;;;;;15.70;13.90;;;;;;;;;;4974266;28;20416;-73
2021/10/17 02:58:56;;;;;;;17.07;15.27;;;;;;;;;;4973921;28;20494;-74
2021/10/17 03:01:22;;;;;;;15.57;13.93;;;;;;;;;;4973987;28;20408;-75
2021/10/17 03:06:52;;;;;;;17.90;15.07;;;;;;;;;;4973937;28;20462;-74
2021/10/17 03:09:18;;;;;;;14.97;13.43;;;;;;;;;;4973789;28;20444;-73
2021/10/17 03:11:44;;;;;;;14.20;12.47;;;;;;;;;;4973950;28;20514;-74
2021/10/17 03:14:10;;;;;;;16.80;15.00;;;;;;;;;;4973662;28;20458;-74
2021/10/17 03:16:36;;;;;;;15.10;12.97;;;;;;;;;;4973725;28;20516;-74
2021/10/17 03:19:02;;;;;;;15.10;13.50;;;;;;;;;;4973733;28;20418;-74
2021/10/17 03:21:28;;;;;;;15.93;12.83;;;;;;;;;;4973731;28;20411;-75
2021/10/17 03:23:54;;;;;;;17.60;15.03;;;;;;;;;;4973693;28;20506;-75
2021/10/17 03:26:20;;;;;;;17.23;14.20;;;;;;;;;;4974091;28;20469;-74
2021/10/17 03:28:46;;;;;;;14.77;13.20;;;;;;;;;;4977410;28;20458;-74
2021/10/17 03:31:12;;;;;;;18.13;14.40;;;;;;;;;;4977146;28;20887;-74
2021/10/17 03:36:41;;;;;;;20.37;15.60;;;;;;;;;;4977270;28;20936;-74
2021/10/17 03:39:07;;;;;;;17.67;14.67;;;;;;;;;;4991835;28;20444;-75
2021/10/17 03:41:33;;;;;;;20.97;16.03;;;;;;;;;;4976913;28;20414;-74
2021/10/17 03:43:59;;;;;;;20.43;15.60;;;;;;;;;;4976443;28;20498;-73
2021/10/17 03:46:25;;;;;;;17.63;15.03;;;;;;;;;;4976960;28;20836;-74
2021/10/17 03:51:55;;;;;;;17.63;14.40;;;;;;;;;;4976689;28;20469;-74
2021/10/17 03:54:21;;;;;;;17.13;15.03;;;;;;;;;;4976592;28;20478;-73
2021/10/17 03:56:47;;;;;;;18.33;15.73;;;;;;;;;;4976592;28;20426;-73
2021/10/17 03:59:15;;;;;;;17.57;15.10;;;;;;;;;;4976465;28;20418;-74
2021/10/17 04:01:41;;;;;;;17.37;14.20;;;;;;;;;;4976602;28;20420;-74
2021/10/17 04:07:10;;;;;;;16.20;14.47;;;;;;;;;;4976407;28;20441;-74
2021/10/17 04:09:37;;;;;;;17.27;15.47;;;;;;;;;;4976508;28;20419;-73
2021/10/17 04:12:03;;;;;;;16.10;14.47;;;;;;;;;;4976316;28;20415;-74
2021/10/17 04:14:30;;;;;;;17.83;15.30;;;;;;;;;;4990401;28;20825;-74
2021/10/17 04:16:56;;;;;;;17.43;13.43;;;;;;;;;;4976303;28;20423;-74
2021/10/17 04:19:21;;;;;;;16.47;14.77;;;;;;;;;;4976294;28;20423;-74
2021/10/17 04:21:47;;;;;;;19.20;15.70;;;;;;;;;;4976259;28;20778;-74
2021/10/17 04:24:13;;;;;;;15.83;14.13;;;;;;;;;;4976100;28;20477;-74
2021/10/17 04:26:39;;;;;;;16.13;12.90;;;;;;;;;;4976221;28;20419;-74
2021/10/17 04:29:05;;;;;;;15.53;13.83;;;;;;;;;;4975931;28;20422;-74
2021/10/17 04:31:31;;;;;;;17.30;14.70;;;;;;;;;;4976083;28;20770;-74
2021/10/17 04:37:01;;;;;;;17.00;14.80;;;;;;;;;;4975879;28;21064;-74
2021/10/17 04:39:28;;;;;;;18.23;15.20;;;;;;;;;;4975934;28;20720;-74
2021/10/17 04:41:54;;;;;;;19.40;14.80;;;;;;;;;;4975931;28;20505;-73
2021/10/17 04:44:20;;;;;;;16.87;15.07;;;;;;;;;;4975410;28;20559;-74
2021/10/17 04:46:46;;;;;;;15.90;13.73;;;;;;;;;;4975704;28;20940;-73
2021/10/17 04:52:15;;;;;;;18.50;15.33;;;;;;;;;;4976006;28;20422;-73
2021/10/17 04:54:41;;;;;;;16.17;14.17;;;;;;;;;;4976830;28;20470;-73
2021/10/17 04:57:07;;;;;;;17.80;14.50;;;;;;;;;;4975669;28;20411;-75
2021/10/17 04:59:34;;;;;;;16.17;14.47;;;;;;;;;;4974942;28;20534;-74
2021/10/17 05:02:00;;;;;;;16.57;14.87;;;;;;;;;;4975129;28;20413;-74
2021/10/17 05:07:30;;;;;;;17.70;14.60;;;;;;;;;;4974796;28;20561;-73
2021/10/17 05:09:56;;;;;;;14.33;12.77;;;;;;;;;;4974943;28;20490;-73
2021/10/17 05:12:22;;;;;;;16.63;14.50;;;;;;;;;;4989888;28;20441;-74
2021/10/17 05:14:48;;;;;;;15.60;13.57;;;;;;;;;;4974657;28;20467;-74
2021/10/17 05:17:14;;;;;;;18.80;15.00;;;;;;;;;;4974641;28;20852;-74
2021/10/17 05:22:43;;;;;;;15.60;14.00;;;;;;;;;;4972607;28;20598;-73
2021/10/17 05:25:13;;;;;;;14.63;13.17;;;;;;;;;;4975020;28;20529;-75
2021/10/17 05:27:39;;;;;;;16.80;13.57;;;;;;;;;;4974892;28;20422;-74
2021/10/17 05:30:06;;;;;;;17.23;13.10;;;;;;;;;;4975179;28;20414;-73
2021/10/17 05:32:32;;;;;;;15.40;13.47;;;;;;;;;;4974908;28;20497;-73
2021/10/17 05:34:58;;;;;;;14.70;13.00;;;;;;;;;;4974866;28;20502;-74
2021/10/17 05:37:24;;;;;;;14.47;12.90;;;;;;;;;;4974719;28;20415;-73
2021/10/17 05:39:50;;;;;;;15.77;13.47;;;;;;;;;;4974711;28;20886;-75
2021/10/17 05:42:16;;;;;;;18.60;14.00;;;;;;;;;;4974485;28;20438;-74
2021/10/17 05:44:42;;;;;;;15.53;13.97;;;;;;;;;;4974585;28;20918;-73
2021/10/17 05:47:08;;;;;;;15.90;13.50;;;;;;;;;;4974751;28;20438;-74
2021/10/17 05:52:37;;;;;;;14.07;12.57;;;;;;;;;;4974522;28;20434;-74
2021/10/17 05:55:03;;;;;;;13.67;11.57;;;;;;;;;;4974536;28;20477;-74
2021/10/17 05:57:29;;;;;;;14.10;12.80;;;;;;;;;;4989295;28;21003;-75
2021/10/17 05:59:55;;;;;;;14.80;13.20;;;;;;;;;;4989472;28;20496;-73
2021/10/17 06:02:21;;;;;;;13.67;12.00;;;;;;;;;;4989374;28;20859;-73
2021/10/17 06:07:50;;;;;;;16.80;12.77;;;;;;;;;;4974469;28;21041;-74
2021/10/17 06:10:16;;;;;;;14.03;12.53;;;;;;;;;;4989616;28;20515;-74
2021/10/17 06:12:42;;;;;;;15.80;11.60;;;;;;;;;;4974471;28;20438;-74
2021/10/17 06:15:12;;;;;;;12.33;11.13;;;;;;;;;;4974384;28;20592;-73
2021/10/17 06:17:38;;;;;;;15.17;13.30;;;;;;;;;;4990466;28;20427;-73
2021/10/17 06:23:08;;;;;;;13.43;11.73;;;;;;;;;;4974168;28;20460;-74
2021/10/17 06:25:33;;;;;;;14.30;10.80;;;;;;;;;;4974328;28;20505;-74
2021/10/17 06:28:01;;;;;;;13.13;11.83;;;;;;;;;;4974047;28;20429;-73
2021/10/17 06:30:27;;;;;;;13.97;12.60;;;;;;;;;;4971228;28;20426;-75
2021/10/17 06:32:53;;;;;;;14.17;12.77;;;;;;;;;;4974029;28;20523;-71
2021/10/17 06:38:23;;;;;;;12.80;11.00;;;;;;;;;;4974056;28;20472;-72
2021/10/17 06:40:49;;;;;;;14.27;12.27;;;;;;;;;;4974012;28;20418;-72
2021/10/17 06:43:15;;;;;;;14.63;12.47;;;;;;;;;;4973629;28;20478;-75
2021/10/17 06:45:41;;;;;;;17.57;13.97;;;;;;;;;;4974214;28;20506;-73
2021/10/17 06:48:07;;;;;;;19.07;13.60;;;;;;;;;;4973956;28;20436;-75
2021/10/17 06:53:36;;;;;;;17.40;10.90;;;;;;;;;;4973981;28;21044;-74
2021/10/17 06:56:03;;;;;;;13.23;10.97;;;;;;;;;;4974183;28;20466;-74
2021/10/17 06:58:29;;;;;;;12.90;11.50;;;;;;;;;;4972868;28;20804;-76
2021/10/17 07:00:55;;;;;;;13.17;11.40;;;;;;;;;;4972771;28;20543;-75
2021/10/17 07:03:21;;;;;;;15.50;12.73;;;;;;;;;;4976632;28;20746;-75
2021/10/17 07:05:48;;;;;;;16.27;12.07;;;;;;;;;;4974234;28;20910;-75
2021/10/17 07:08:14;;;;;;;12.37;11.17;;;;;;;;;;4975304;28;20419;-76
2021/10/17 07:10:40;;;;;;;12.70;11.40;;;;;;;;;;4990439;28;20673;-74
2021/10/17 07:13:06;;;;;;;11.60;10.20;;;;;;;;;;4975988;28;20942;-74
2021/10/17 07:15:32;;;;;;;13.93;10.80;;;;;;;;;;4976247;28;20882;-74
2021/10/17 07:17:58;;;;;;;11.40;10.33;;;;;;;;;;4976119;28;20422;-74
2021/10/17 07:23:27;;;;;;;11.97;10.70;;;;;;;;;;4976509;28;20498;-74
2021/10/17 07:25:53;;;;;;;17.60;12.63;;;;;;;;;;4976776;28;20442;-76
2021/10/17 07:28:19;;;;;;;13.80;12.30;;;;;;;;;;4976840;28;20412;-76
2021/10/17 07:30:45;;;;;;;15.13;13.20;;;;;;;;;;4976754;28;20918;-76
2021/10/17 07:33:11;;;;;;;14.63;13.03;;;;;;;;;;4976928;28;20412;-74
2021/10/17 07:38:41;;;;;;;14.73;12.47;;;;;;;;;;4976793;28;20427;-74
2021/10/17 07:41:07;;;;;;;14.73;13.27;;;;;;;;;;4977107;28;20445;-72
2021/10/17 07:43:33;;;;;;;13.80;12.40;;;;;;;;;;4976702;28;20478;-74
2021/10/17 07:46:02;;;;;;;14.50;13.00;;;;;;;;;;4975817;28;21043;-74
2021/10/17 07:48:28;;;;;;;17.23;15.40;;;;;;;;;;4976266;28;20410;-73
2021/10/17 07:53:58;;;;;;;22.30;15.17;;;;;;;;;;4977074;28;20480;-74
2021/10/17 07:56:24;;;;;;;20.30;15.03;;;;;;;;;;4991588;28;20453;-73
2021/10/17 07:58:51;;;;;;;15.80;13.63;;;;;;;;;;4976112;28;20454;-75
2021/10/17 08:01:17;;;;;;;16.90;15.20;;;;;;;;;;4976623;28;20854;-75
2021/10/17 08:03:43;;;;;;;17.10;15.17;;;;;;;;;;4976065;28;20423;-75
2021/10/17 08:09:12;;;;;;;15.37;13.90;;;;;;;;;;4976167;28;20521;-75
2021/10/17 08:11:38;;;;;;;16.57;14.33;;;;;;;;;;4976157;28;20446;-77
2021/10/17 08:14:04;;;;;;;17.07;14.20;;;;;;;;;;4975342;28;20461;-74
2021/10/17 08:16:30;;;;;;;17.97;14.50;;;;;;;;;;4975964;28;20418;-73
2021/10/17 08:18:56;;;;;;;14.73;13.40;;;;;;;;;;4976080;28;20403;-74
2021/10/17 08:24:25;;;;;;;16.30;14.43;;;;;;;;;;4975804;28;20422;-75
2021/10/17 08:26:51;;;;;;;18.97;14.80;;;;;;;;;;4975798;28;20801;-76
2021/10/17 08:29:17;;;;;;;15.30;13.80;;;;;;;;;;4975751;28;20734;-76
2021/10/17 08:31:43;;;;;;;16.13;14.47;;;;;;;;;;4990590;28;20437;-75
2021/10/17 08:34:09;;;;;;;15.13;13.73;;;;;;;;;;4975475;28;20953;-75
2021/10/17 08:39:39;;;;;;;14.20;12.90;;;;;;;;;;4975818;28;20924;-76
2021/10/17 08:42:05;;;;;;;17.80;15.10;;;;;;;;;;4975279;28;20423;-77
2021/10/17 08:44:31;;;;;;;16.07;13.17;;;;;;;;;;4975402;28;20530;-76
2021/10/17 08:46:59;;;;;;;15.37;13.77;;;;;;;;;;4975341;28;20407;-76
2021/10/17 08:49:26;;;;;;;15.77;14.17;;;;;;;;;;4975409;28;20419;-75
2021/10/17 08:54:55;;;;;;;15.33;13.73;;;;;;;;;;4974492;28;20460;-75
2021/10/17 08:57:21;;;;;;;16.23;14.53;;;;;;;;;;4974644;28;20438;-74
2021/10/17 08:59:51;;;;;;;16.80;15.10;;;;;;;;;;4975206;28;20517;-75
2021/10/17 09:02:18;;;;;;;16.33;14.43;;;;;;;;;;4974911;28;20506;-77
2021/10/17 09:04:57;;;;;;;14.90;12.97;;;;;;;;;;4974421;28;20926;-76
2021/10/17 09:07:23;;;;;;;17.27;15.27;;;;;;;;;;4974468;28;20457;-73
2021/10/17 09:10:05;;;;;;;17.07;14.80;;;;;;;;;;4973439;28;20446;-74
2021/10/17 09:12:31;;;;;;;15.83;14.30;;;;;;;;;;4974624;28;20555;-76
2021/10/17 09:15:16;;;;;;;16.97;15.17;;;;;;;;;;4974671;28;20477;-78
2021/10/17 09:18:01;;;;;;;26.27;15.50;;;;;;;;;;4974811;28;20513;-76
2021/10/17 09:20:27;;;;;;;16.50;15.00;;;;;;;;;;4971843;28;20423;-76
2021/10/17 09:22:53;;;;;;;14.87;13.47;;;;;;;;;;4977565;28;20423;-77
2021/10/17 09:25:35;;;;;;;14.03;12.67;;;;;;;;;;4975880;28;20415;-77
2021/10/17 09:28:02;;;;;;;17.30;14.40;;;;;;;;;;4974512;28;20425;-75
2021/10/17 09:30:28;;;;;;;14.53;13.10;;;;;;;;;;4974542;28;20477;-78
2021/10/17 09:33:15;;;;;;;14.80;13.30;;;;;;;;;;4974541;28;20510;-77
2021/10/17 09:35:41;;;;;;;15.37;13.87;;;;;;;;;;4974252;28;20474;-77
2021/10/17 09:38:08;;;;;;;14.70;13.30;;;;;;;;;;4974588;28;20498;-76
2021/10/17 09:40:36;;;;;;;17.17;15.63;;;;;;;;;;4974245;28;20461;-78
2021/10/17 09:43:15;;;;;;;15.53;13.90;;;;;;;;;;4973850;28;20466;-77
2021/10/17 09:45:42;;;;;;;15.23;13.83;;;;;;;;;;4974178;28;20502;-78
2021/10/17 09:48:08;;;;;;;14.37;13.07;;;;;;;;;;4974457;28;20419;-76
2021/10/17 09:50:34;;;;;;;14.70;13.40;;;;;;;;;;4974199;28;20422;-77
2021/10/17 09:53:06;;;;;;;15.80;14.23;;;;;;;;;;4974211;28;20488;-77
2021/10/17 09:55:32;;;;;;;14.87;13.57;;;;;;;;;;4974147;28;20543;-77
2021/10/17 09:57:59;;;;;;;15.87;14.20;;;;;;;;;;4973919;28;20414;-76
2021/10/17 10:00:25;;;;;;;14.27;12.87;;;;;;;;;;4974044;28;20429;-75
2021/10/17 10:02:52;;;;;;;16.13;14.50;;;;;;;;;;4973868;28;20453;-80
2021/10/17 10:05:27;;;;;;;15.30;13.90;;;;;;;;;;4974359;28;20420;-77
2021/10/17 10:07:57;;;;;;;14.53;12.93;;;;;;;;;;4974128;28;20497;-77
2021/10/17 10:10:23;;;;;;;15.67;14.07;;;;;;;;;;4974280;28;20861;-77
2021/10/17 10:12:49;;;;;;;16.33;14.97;;;;;;;;;;4973961;28;20451;-77
2021/10/17 10:15:15;;;;;;;15.47;13.97;;;;;;;;;;4973744;28;20510;-78
2021/10/17 10:17:43;;;;;;;13.30;12.00;;;;;;;;;;4974007;28;20477;-77
2021/10/17 10:20:10;;;;;;;16.80;15.30;;;;;;;;;;4988483;28;20442;-78
2021/10/17 10:25:42;;;;;;;17.30;15.70;;;;;;;;;;4973863;28;20498;-76
2021/10/17 10:28:12;;;;;;;14.57;13.27;;;;;;;;;;4973554;28;20419;-75
2021/10/17 10:30:38;;;;;;;14.90;13.60;;;;;;;;;;4973712;28;20410;-76
2021/10/17 10:33:08;;;;;;;13.90;12.70;;;;;;;;;;4973878;28;20450;-78
2021/10/17 10:35:34;;;;;;;15.57;14.30;;;;;;;;;;4989682;28;20552;-78
2021/10/17 10:38:00;;;;;;;15.67;14.33;;;;;;;;;;4977667;28;20417;-77
2021/10/17 10:40:26;;;;;;;14.37;13.07;;;;;;;;;;4977822;28;20881;-77
2021/10/17 10:42:53;;;;;;;14.90;13.43;;;;;;;;;;4977381;28;20832;-77
2021/10/17 10:45:25;;;;;;;15.00;13.53;;;;;;;;;;4977579;28;20814;-75
2021/10/17 10:48:06;;;;;;;12.83;11.73;;;;;;;;;;4974629;28;20422;-74
2021/10/17 10:56:48;;;;;;;14.30;13.10;;;;;;;;;;4977208;28;20469;-75
2021/10/17 10:59:16;;;;;;;14.20;13.10;;;;;;;;;;4976977;28;20909;-75
2021/10/17 11:01:59;;;;;;;13.53;12.33;;;;;;;;;;4977143;28;20991;-74
2021/10/17 11:04:44;;;;;;;14.73;13.47;;;;;;;;;;4977352;28;20791;-74
2021/10/17 11:07:16;;;;;;;13.90;12.80;;;;;;;;;;4977193;28;20456;-75
2021/10/17 11:09:42;;;;;;;14.10;13.00;;;;;;;;;;4976906;28;20437;-75
2021/10/17 11:12:09;;;;;;;11.90;11.00;;;;;;;;;;4976782;28;20886;-73
2021/10/17 11:14:35;;;;;;;12.07;11.07;;;;;;;;;;4976671;28;20583;-74
2021/10/17 11:17:01;;;;;;;13.43;12.33;;;;;;;;;;4976699;28;20550;-75
2021/10/17 11:19:28;;;;;;;13.87;12.77;;;;;;;;;;4976647;28;20413;-75
2021/10/17 11:22:03;;;;;;;12.90;11.90;;;;;;;;;;4976626;28;20441;-74
2021/10/17 11:24:31;;;;;;;13.13;12.07;;;;;;;;;;4976587;28;20406;-74
2021/10/17 11:27:13;;;;;;;12.90;11.77;;;;;;;;;;4976593;28;20461;-74
2021/10/17 11:29:43;;;;;;;12.43;11.17;;;;;;;;;;4976535;28;20414;-73
2021/10/17 11:32:10;;;;;;;13.00;12.00;;;;;;;;;;4976595;28;20816;-74
2021/10/17 11:34:36;;;;;;;12.90;11.90;;;;;;;;;;4976376;28;20458;-74
2021/10/17 11:37:18;;;;;;;13.17;11.97;;;;;;;;;;4976445;28;20739;-74
2021/10/17 11:39:55;;;;;;;12.13;11.07;;;;;;;;;;4976538;28;20401;-75
2021/10/17 11:42:22;;;;;;;12.17;11.17;;;;;;;;;;4975911;28;20933;-75
2021/10/17 11:44:48;;;;;;;13.33;12.33;;;;;;;;;;4976146;28;20427;-74
2021/10/17 11:47:15;;;;;;;12.33;11.30;;;;;;;;;;4975347;28;20449;-74
2021/10/17 11:49:41;;;;;;;13.30;12.20;;;;;;;;;;4976350;28;20419;-74
2021/10/17 11:52:11;;;;;;;12.47;11.50;;;;;;;;;;4976228;28;20890;-74
2021/10/17 11:54:48;;;;;;;13.83;12.73;;;;;;;;;;4975911;28;20557;-74
2021/10/17 11:57:33;;;;;;;14.23;13.13;;;;;;;;;;4991210;28;20561;-74
2021/10/17 12:00:00;;;;;;;14.70;13.40;;;;;;;;;;4976055;28;20403;-74
2021/10/17 12:02:32;;;;;;;15.50;14.30;;;;;;;;;;4976321;28;20892;-74
2021/10/17 12:04:58;;;;;;;14.70;13.40;;;;;;;;;;4976522;28;20414;-75
2021/10/17 12:07:25;;;;;;;13.80;12.70;;;;;;;;;;4976025;28;20514;-75
2021/10/17 12:09:51;;;;;;;15.40;14.20;;;;;;;;;;4976056;28;20421;-75
2021/10/17 12:12:23;;;;;;;15.13;13.87;;;;;;;;;;4975955;28;20992;-73
2021/10/17 12:15:03;;;;;;;15.20;13.87;;;;;;;;;;4991199;28;20570;-74
2021/10/17 12:17:29;;;;;;;15.57;14.27;;;;;;;;;;4976095;28;20446;-75
2021/10/17 12:20:14;;;;;;;14.13;12.90;;;;;;;;;;4976154;28;20441;-74
2021/10/17 12:22:47;;;;;;;14.63;13.23;;;;;;;;;;4976073;28;20430;-75
2021/10/17 12:25:17;;;;;;;14.30;12.90;;;;;;;;;;4975944;28;20414;-75
2021/10/17 12:27:44;;;;;;;14.40;13.20;;;;;;;;;;4975882;28;20908;-75
2021/10/17 12:30:12;;;;;;;14.03;12.83;;;;;;;;;;4975719;28;20480;-74
2021/10/17 12:32:46;;;;;;;15.57;14.17;;;;;;;;;;4975572;28;20984;-75
2021/10/17 12:35:16;;;;;;;14.40;13.20;;;;;;;;;;4975609;28;20471;-74
2021/10/17 12:37:42;;;;;;;13.80;12.70;;;;;;;;;;4975895;28;20450;-74
2021/10/17 12:40:08;;;;;;;14.43;13.13;;;;;;;;;;4975760;28;20650;-73
2021/10/17 12:42:56;;;;;;;13.93;12.73;;;;;;;;;;4975343;28;20546;-73
2021/10/17 12:45:27;;;;;;;15.30;13.97;;;;;;;;;;4975855;28;20453;-73
2021/10/17 12:47:54;;;;;;;14.50;13.20;;;;;;;;;;4975655;28;20418;-73
2021/10/17 12:50:22;;;;;;;14.53;13.43;;;;;;;;;;4975834;28;20428;-75
2021/10/17 12:52:59;;;;;;;14.20;13.00;;;;;;;;;;4975458;28;20419;-75
2021/10/17 12:55:29;;;;;;;14.57;13.37;;;;;;;;;;4975369;28;20489;-75
2021/10/17 12:58:05;;;;;;;13.03;11.83;;;;;;;;;;4975477;28;20418;-74
2021/10/17 13:00:31;;;;;;;14.20;12.93;;;;;;;;;;4975266;28;20426;-74
2021/10/17 13:03:16;;;;;;;15.30;13.90;;;;;;;;;;4975290;28;20407;-74
2021/10/17 13:05:48;;;;;;;15.17;13.67;;;;;;;;;;4975382;28;20430;-74
2021/10/17 13:08:14;;;;;;;14.40;13.00;;;;;;;;;;4975580;28;20894;-74
2021/10/17 13:10:40;;;;;;;14.53;13.03;;;;;;;;;;4975275;28;20422;-74
2021/10/17 13:13:16;;;;;;;15.37;13.80;;;;;;;;;;4975186;28;20407;-73
2021/10/17 13:15:43;;;;;;;14.57;13.27;;;;;;;;;;4975309;28;20557;-75
2021/10/17 13:18:09;;;;;;;14.63;13.13;;;;;;;;;;4974077;28;20437;-74
2021/10/17 13:20:38;;;;;;;14.30;12.90;;;;;;;;;;4975410;28;20554;-73
2021/10/17 13:23:05;;;;;;;13.93;12.47;;;;;;;;;;4974994;28;20415;-74
2021/10/17 13:25:32;;;;;;;13.07;11.77;;;;;;;;;;4974933;28;20415;-75
2021/10/17 13:27:59;;;;;;;14.53;12.90;;;;;;;;;;4989767;28;20447;-74
2021/10/17 13:30:26;;;;;;;15.60;13.53;;;;;;;;;;4974886;28;20809;-74
2021/10/17 13:32:52;;;;;;;13.67;12.23;;;;;;;;;;4974423;28;20772;-73
2021/10/17 13:35:18;;;;;;;14.93;13.40;;;;;;;;;;4974854;28;20478;-74
2021/10/17 13:37:45;;;;;;;16.33;13.80;;;;;;;;;;4974782;28;20449;-74
2021/10/17 13:40:12;;;;;;;13.27;12.00;;;;;;;;;;4974591;28;20415;-74
2021/10/17 13:42:39;;;;;;;13.63;12.23;;;;;;;;;;4974173;28;20525;-73
2021/10/17 13:45:09;;;;;;;13.07;11.77;;;;;;;;;;4974766;28;20454;-75
2021/10/17 13:47:35;;;;;;;13.93;12.10;;;;;;;;;;4974443;28;20422;-74
2021/10/17 13:50:01;;;;;;;15.10;13.50;;;;;;;;;;4974548;28;20414;-74
2021/10/17 13:52:27;;;;;;;13.77;11.70;;;;;;;;;;4974186;28;20430;-73
2021/10/17 13:54:53;;;;;;;13.50;10.80;;;;;;;;;;4974505;28;20536;-72
2021/10/17 13:57:22;;;;;;;13.50;12.03;;;;;;;;;;4974452;28;21015;-73
2021/10/17 13:59:48;;;;;;;14.77;13.17;;;;;;;;;;4974265;28;20414;-73
2021/10/17 14:02:14;;;;;;;15.90;12.83;;;;;;;;;;4974282;28;20762;-72
2021/10/17 14:04:40;;;;;;;14.70;12.70;;;;;;;;;;4974275;28;20415;-74
2021/10/17 14:12:54;;;;;;;16.13;12.97;;;;;;;;;;4973923;28;20642;-76
2021/10/17 14:15:20;;;;;;;16.47;12.80;;;;;;;;;;4973252;28;20473;-74
2021/10/17 14:17:46;;;;;;;12.80;11.30;;;;;;;;;;4973482;28;20414;-76
2021/10/17 14:20:12;;;;;;;15.30;13.70;;;;;;;;;;4973607;28;20435;-75
2021/10/17 14:22:38;;;;;;;17.60;14.33;;;;;;;;;;4973604;28;20422;-74
2021/10/17 14:25:04;;;;;;;17.70;14.40;;;;;;;;;;4973678;28;20827;-75
2021/10/17 14:27:30;;;;;;;15.63;12.80;;;;;;;;;;4973352;28;20414;-74
2021/10/17 14:29:56;;;;;;;18.63;14.00;;;;;;;;;;4973229;28;20528;-74
2021/10/17 14:32:22;;;;;;;16.90;13.33;;;;;;;;;;4973156;28;20450;-75
2021/10/17 14:34:48;;;;;;;17.23;13.83;;;;;;;;;;4973235;28;20601;-74
2021/10/17 14:37:14;;;;;;;15.30;12.93;;;;;;;;;;4973532;28;20426;-78
2021/10/17 14:42:44;;;;;;;24.83;15.63;;;;;;;;;;4973742;28;20655;-74
2021/10/17 14:45:10;;;;;;;18.17;14.03;;;;;;;;;;4988607;28;20446;-74
2021/10/17 14:47:36;;;;;;;16.80;13.63;;;;;;;;;;4973852;28;20435;-74
2021/10/17 14:50:02;;;;;;;16.57;13.60;;;;;;;;;;4973849;28;20426;-74
2021/10/17 14:52:28;;;;;;;17.83;15.10;;;;;;;;;;4973589;28;20885;-74
2021/10/17 14:54:54;;;;;;;17.03;12.90;;;;;;;;;;4973543;28;20466;-74
2021/10/17 14:57:22;;;;;;;17.67;13.90;;;;;;;;;;4973463;28;20525;-74
2021/10/17 14:59:48;;;;;;;17.57;13.77;;;;;;;;;;4973552;28;20454;-74
2021/10/17 15:02:14;;;;;;;18.10;15.50;;;;;;;;;;4973692;28;20445;-75
2021/10/17 15:04:40;;;;;;;17.73;14.27;;;;;;;;;;4973727;28;20426;-75
2021/10/17 15:07:06;;;;;;;16.40;13.77;;;;;;;;;;4973604;28;20470;-74
2021/10/17 15:09:33;;;;;;;23.10;14.87;;;;;;;;;;4973016;28;20897;-74
2021/10/17 15:12:00;;;;;;;18.17;14.90;;;;;;;;;;4973467;28;20545;-74
2021/10/17 15:14:26;;;;;;;19.20;14.10;;;;;;;;;;4973209;28;20912;-75
2021/10/17 15:16:52;;;;;;;17.07;13.70;;;;;;;;;;4973602;28;20434;-74
2021/10/17 15:19:18;;;;;;;16.40;13.97;;;;;;;;;;4973493;28;20445;-74
2021/10/17 15:21:45;;;;;;;19.83;15.40;;;;;;;;;;4973819;28;20489;-74
2021/10/17 15:24:13;;;;;;;24.03;15.47;;;;;;;;;;4975847;28;20414;-74
2021/10/17 15:26:40;;;;;;;18.63;14.50;;;;;;;;;;4991004;28;20539;-74
2021/10/17 15:29:06;;;;;;;18.77;14.90;;;;;;;;;;4976574;28;20501;-75
2021/10/17 15:31:32;;;;;;;20.37;15.40;;;;;;;;;;4976986;28;20580;-74
2021/10/17 15:33:58;;;;;;;20.20;17.77;;;;;;;;;;4976868;28;20793;-75
2021/10/17 15:36:24;;;;;;;26.73;21.23;;;;;;;;;;4972808;28;20583;-73
2021/10/17 15:38:50;;;;;;;19.33;15.57;;;;;;;;;;4973293;28;20418;-74
2021/10/17 15:41:16;;;;;;;19.50;15.70;;;;;;;;;;4974734;28;20866;-75
2021/10/17 15:43:42;;;;;;;19.87;15.20;;;;;;;;;;4973488;28;20490;-73
2021/10/17 15:46:08;;;;;;;18.07;14.80;;;;;;;;;;4975378;28;20470;-74
2021/10/17 15:48:34;;;;;;;19.20;14.40;;;;;;;;;;4976520;28;20418;-74
2021/10/17 15:51:01;;;;;;;20.50;15.70;;;;;;;;;;4976481;28;20410;-75